sensor_id;sensor_type;location;lat;lon;timestamp;P1;durP1;ratioP1;P2;durP2;ratioP2
40815;SDS011;26535;48.788;9.214;2023-05-07T05:03:06;5.60;;;3.92;;
40815;SDS011;26535;48.788;9.214;2023-05-07T05:05:33;5.75;;;3.97;;
40815;SDS011;26535;48.788;9.214;2023-05-07T05:08:00;5.95;;;3.67;;
40815;SDS011;26535;48.788;9.214;2023-05-07T05:10:26;4.22;;;3.15;;
40815;SDS011;26535;48.788;9.214;2023-05-07T05:12:51;5.95;;;3.55;;
40815;SDS011;26535;48.788;9.214;2023-05-07T05:15:19;5.70;;;3.83;;
40815;SDS011;26535;48.788;9.214;2023-05-07T05:17:45;6.10;;;3.80;;
40815;SDS011;26535;48.788;9.214;2023-05-07T05:20:11;6.45;;;3.67;;
40815;SDS011;26535;48.788;9.214;2023-05-07T05:22:38;11.23;;;4.35;;
40815;SDS011;26535;48.788;9.214;2023-05-07T05:25:05;8.18;;;4.95;;
40815;SDS011;26535;48.788;9.214;2023-05-07T05:27:31;8.35;;;4.55;;
40815;SDS011;26535;48.788;9.214;2023-05-07T05:29:57;6.35;;;4.20;;
40815;SDS011;26535;48.788;9.214;2023-05-07T05:32:23;9.98;;;4.60;;
40815;SDS011;26535;48.788;9.214;2023-05-07T05:34:52;5.03;;;3.97;;
40815;SDS011;26535;48.788;9.214;2023-05-07T05:37:18;6.25;;;4.47;;
40815;SDS011;26535;48.788;9.214;2023-05-07T05:39:44;5.75;;;3.40;;
40815;SDS011;26535;48.788;9.214;2023-05-07T05:42:10;5.35;;;3.72;;
40815;SDS011;26535;48.788;9.214;2023-05-07T05:44:36;6.63;;;3.70;;
40815;SDS011;26535;48.788;9.214;2023-05-07T05:47:02;8.13;;;4.38;;
40815;SDS011;26535;48.788;9.214;2023-05-07T05:49:29;6.22;;;4.22;;
40815;SDS011;26535;48.788;9.214;2023-05-07T05:51:54;6.18;;;4.60;;
40815;SDS011;26535;48.788;9.214;2023-05-07T05:54:22;7.43;;;4.05;;
40815;SDS011;26535;48.788;9.214;2023-05-07T05:56:48;7.00;;;3.80;;
40815;SDS011;26535;48.788;9.214;2023-05-07T05:59:14;7.57;;;5.32;;
40815;SDS011;26535;48.788;9.214;2023-05-07T06:01:40;8.93;;;4.18;;
40815;SDS011;26535;48.788;9.214;2023-05-07T06:04:06;6.07;;;3.80;;
40815;SDS011;26535;48.788;9.214;2023-05-07T06:06:33;7.82;;;4.57;;
40815;SDS011;26535;48.788;9.214;2023-05-07T06:09:00;5.57;;;4.00;;
40815;SDS011;26535;48.788;9.214;2023-05-07T06:11:33;7.53;;;4.18;;
40815;SDS011;26535;48.788;9.214;2023-05-07T06:13:59;6.10;;;4.03;;
40815;SDS011;26535;48.788;9.214;2023-05-07T06:16:26;7.00;;;4.75;;
40815;SDS011;26535;48.788;9.214;2023-05-07T06:18:52;6.03;;;4.25;;
40815;SDS011;26535;48.788;9.214;2023-05-07T06:21:18;7.25;;;3.47;;
40815;SDS011;26535;48.788;9.214;2023-05-07T06:23:44;7.15;;;4.90;;
40815;SDS011;26535;48.788;9.214;2023-05-07T06:26:09;6.80;;;4.35;;
40815;SDS011;26535;48.788;9.214;2023-05-07T06:28:39;6.88;;;4.38;;
40815;SDS011;26535;48.788;9.214;2023-05-07T06:31:12;5.20;;;3.97;;
40815;SDS011;26535;48.788;9.214;2023-05-07T06:34:04;8.40;;;4.30;;
40815;SDS011;26535;48.788;9.214;2023-05-07T06:36:34;9.25;;;4.30;;
40815;SDS011;26535;48.788;9.214;2023-05-07T06:39:06;6.68;;;4.53;;
40815;SDS011;26535;48.788;9.214;2023-05-07T06:41:32;7.35;;;4.78;;
40815;SDS011;26535;48.788;9.214;2023-05-07T06:44:04;6.22;;;4.20;;
40815;SDS011;26535;48.788;9.214;2023-05-07T06:46:36;6.60;;;4.80;;
40815;SDS011;26535;48.788;9.214;2023-05-07T06:49:03;7.57;;;4.53;;
40815;SDS011;26535;48.788;9.214;2023-05-07T06:51:29;8.82;;;4.60;;
40815;SDS011;26535;48.788;9.214;2023-05-07T06:54:00;7.70;;;4.57;;
40815;SDS011;26535;48.788;9.214;2023-05-07T06:56:25;7.70;;;5.15;;
40815;SDS011;26535;48.788;9.214;2023-05-07T06:58:51;6.38;;;4.57;;
40815;SDS011;26535;48.788;9.214;2023-05-07T07:01:17;5.95;;;3.80;;
40815;SDS011;26535;48.788;9.214;2023-05-07T07:03:43;7.03;;;4.53;;
40815;SDS011;26535;48.788;9.214;2023-05-07T07:06:09;5.45;;;4.55;;
40815;SDS011;26535;48.788;9.214;2023-05-07T07:08:35;7.22;;;4.18;;
40815;SDS011;26535;48.788;9.214;2023-05-07T07:11:04;6.00;;;4.40;;
40815;SDS011;26535;48.788;9.214;2023-05-07T07:13:31;7.93;;;4.68;;
40815;SDS011;26535;48.788;9.214;2023-05-07T07:15:57;6.15;;;4.07;;
40815;SDS011;26535;48.788;9.214;2023-05-07T07:18:23;7.47;;;4.55;;
40815;SDS011;26535;48.788;9.214;2023-05-07T07:20:49;7.93;;;4.57;;
40815;SDS011;26535;48.788;9.214;2023-05-07T07:23:15;8.18;;;4.07;;
40815;SDS011;26535;48.788;9.214;2023-05-07T07:25:41;6.47;;;3.40;;
40815;SDS011;26535;48.788;9.214;2023-05-07T07:28:07;6.22;;;3.92;;
40815;SDS011;26535;48.788;9.214;2023-05-07T07:30:33;6.60;;;3.38;;
40815;SDS011;26535;48.788;9.214;2023-05-07T07:32:59;6.63;;;3.30;;
40815;SDS011;26535;48.788;9.214;2023-05-07T07:35:31;4.75;;;3.20;;
40815;SDS011;26535;48.788;9.214;2023-05-07T07:37:57;6.25;;;3.55;;
40815;SDS011;26535;48.788;9.214;2023-05-07T07:40:23;4.35;;;2.60;;
40815;SDS011;26535;48.788;9.214;2023-05-07T07:42:50;5.53;;;3.10;;
40815;SDS011;26535;48.788;9.214;2023-05-07T07:45:17;7.25;;;3.13;;
40815;SDS011;26535;48.788;9.214;2023-05-07T07:47:46;3.90;;;2.40;;
40815;SDS011;26535;48.788;9.214;2023-05-07T07:50:12;4.50;;;2.22;;
40815;SDS011;26535;48.788;9.214;2023-05-07T07:52:38;4.47;;;2.22;;
40815;SDS011;26535;48.788;9.214;2023-05-07T07:55:05;4.45;;;2.10;;
40815;SDS011;26535;48.788;9.214;2023-05-07T07:57:32;3.92;;;2.10;;
40815;SDS011;26535;48.788;9.214;2023-05-07T07:59:59;6.28;;;2.00;;
40815;SDS011;26535;48.788;9.214;2023-05-07T08:02:25;5.07;;;2.38;;
40815;SDS011;26535;48.788;9.214;2023-05-07T08:04:51;4.45;;;1.65;;
40815;SDS011;26535;48.788;9.214;2023-05-07T08:07:17;3.55;;;1.75;;
40815;SDS011;26535;48.788;9.214;2023-05-07T08:09:46;4.32;;;2.30;;
40815;SDS011;26535;48.788;9.214;2023-05-07T08:12:13;4.07;;;1.80;;
40815;SDS011;26535;48.788;9.214;2023-05-07T08:14:40;5.03;;;1.80;;
40815;SDS011;26535;48.788;9.214;2023-05-07T08:17:07;4.90;;;1.83;;
40815;SDS011;26535;48.788;9.214;2023-05-07T08:19:35;2.90;;;1.63;;
40815;SDS011;26535;48.788;9.214;2023-05-07T08:22:02;3.25;;;1.73;;
40815;SDS011;26535;48.788;9.214;2023-05-07T08:24:29;4.57;;;2.15;;
40815;SDS011;26535;48.788;9.214;2023-05-07T08:26:57;2.75;;;1.90;;
40815;SDS011;26535;48.788;9.214;2023-05-07T08:29:23;5.00;;;2.03;;
40815;SDS011;26535;48.788;9.214;2023-05-07T08:31:48;3.40;;;1.80;;
40815;SDS011;26535;48.788;9.214;2023-05-07T08:34:14;3.08;;;1.70;;
40815;SDS011;26535;48.788;9.214;2023-05-07T08:36:43;3.58;;;1.88;;
40815;SDS011;26535;48.788;9.214;2023-05-07T08:39:11;3.35;;;1.83;;
40815;SDS011;26535;48.788;9.214;2023-05-07T08:41:37;4.65;;;1.95;;
40815;SDS011;26535;48.788;9.214;2023-05-07T08:44:03;3.22;;;1.77;;
40815;SDS011;26535;48.788;9.214;2023-05-07T08:46:36;5.75;;;2.08;;
40815;SDS011;26535;48.788;9.214;2023-05-07T08:49:02;5.40;;;1.90;;
40815;SDS011;26535;48.788;9.214;2023-05-07T08:51:28;6.68;;;1.95;;
40815;SDS011;26535;48.788;9.214;2023-05-07T08:53:54;4.35;;;2.17;;
40815;SDS011;26535;48.788;9.214;2023-05-07T08:56:27;4.85;;;1.73;;
40815;SDS011;26535;48.788;9.214;2023-05-07T08:58:54;3.67;;;2.03;;
40815;SDS011;26535;48.788;9.214;2023-05-07T09:01:25;3.60;;;1.70;;
40815;SDS011;26535;48.788;9.214;2023-05-07T09:03:52;4.53;;;1.80;;
40815;SDS011;26535;48.788;9.214;2023-05-07T09:06:19;4.05;;;1.88;;
40815;SDS011;26535;48.788;9.214;2023-05-07T09:08:52;4.07;;;2.05;;
40815;SDS011;26535;48.788;9.214;2023-05-07T09:11:20;4.70;;;1.90;;
40815;SDS011;26535;48.788;9.214;2023-05-07T09:13:48;4.72;;;1.73;;
40815;SDS011;26535;48.788;9.214;2023-05-07T09:16:18;3.47;;;1.50;;
40815;SDS011;26535;48.788;9.214;2023-05-07T09:18:46;3.00;;;1.58;;
40815;SDS011;26535;48.788;9.214;2023-05-07T09:21:16;3.42;;;1.60;;
40815;SDS011;26535;48.788;9.214;2023-05-07T09:23:44;4.53;;;1.83;;
40815;SDS011;26535;48.788;9.214;2023-05-07T09:26:10;4.22;;;1.80;;
40815;SDS011;26535;48.788;9.214;2023-05-07T09:28:40;3.22;;;1.63;;
40815;SDS011;26535;48.788;9.214;2023-05-07T09:33:35;3.28;;;1.60;;
40815;SDS011;26535;48.788;9.214;2023-05-07T09:36:06;2.40;;;1.27;;
40815;SDS011;26535;48.788;9.214;2023-05-07T09:38:35;4.40;;;1.75;;
40815;SDS011;26535;48.788;9.214;2023-05-07T09:41:02;4.63;;;2.40;;
40815;SDS011;26535;48.788;9.214;2023-05-07T09:43:33;2.90;;;1.40;;
40815;SDS011;26535;48.788;9.214;2023-05-07T09:46:14;3.03;;;1.35;;
40815;SDS011;26535;48.788;9.214;2023-05-07T09:48:47;3.28;;;1.50;;
40815;SDS011;26535;48.788;9.214;2023-05-07T09:51:34;4.70;;;1.55;;
40815;SDS011;26535;48.788;9.214;2023-05-07T09:54:02;4.32;;;1.70;;
40815;SDS011;26535;48.788;9.214;2023-05-07T09:56:32;2.70;;;1.20;;
40815;SDS011;26535;48.788;9.214;2023-05-07T09:59:00;2.22;;;1.10;;
40815;SDS011;26535;48.788;9.214;2023-05-07T10:01:29;2.30;;;1.15;;
40815;SDS011;26535;48.788;9.214;2023-05-07T10:03:56;2.63;;;1.38;;
40815;SDS011;26535;48.788;9.214;2023-05-07T10:06:24;1.95;;;1.08;;
40815;SDS011;26535;48.788;9.214;2023-05-07T10:08:53;2.72;;;1.33;;
40815;SDS011;26535;48.788;9.214;2023-05-07T10:11:21;4.37;;;1.50;;
40815;SDS011;26535;48.788;9.214;2023-05-07T10:13:47;2.97;;;1.52;;
40815;SDS011;26535;48.788;9.214;2023-05-07T10:16:14;3.33;;;1.20;;
40815;SDS011;26535;48.788;9.214;2023-05-07T10:18:44;4.13;;;1.33;;
40815;SDS011;26535;48.788;9.214;2023-05-07T10:21:16;4.20;;;1.10;;
40815;SDS011;26535;48.788;9.214;2023-05-07T10:23:44;4.25;;;1.20;;
40815;SDS011;26535;48.788;9.214;2023-05-07T10:26:14;3.55;;;1.35;;
40815;SDS011;26535;48.788;9.214;2023-05-07T10:28:43;3.90;;;1.42;;
40815;SDS011;26535;48.788;9.214;2023-05-07T10:33:45;3.20;;;1.20;;
40815;SDS011;26535;48.788;9.214;2023-05-07T10:36:14;2.42;;;1.25;;
40815;SDS011;26535;48.788;9.214;2023-05-07T10:38:40;1.98;;;1.35;;
40815;SDS011;26535;48.788;9.214;2023-05-07T10:41:06;2.63;;;1.17;;
40815;SDS011;26535;48.788;9.214;2023-05-07T10:43:43;3.25;;;1.38;;
40815;SDS011;26535;48.788;9.214;2023-05-07T10:46:18;3.13;;;1.05;;
40815;SDS011;26535;48.788;9.214;2023-05-07T10:51:28;3.53;;;1.00;;
40815;SDS011;26535;48.788;9.214;2023-05-07T10:54:19;2.83;;;1.13;;
40815;SDS011;26535;48.788;9.214;2023-05-07T10:56:54;2.05;;;1.17;;
40815;SDS011;26535;48.788;9.214;2023-05-07T10:59:31;3.28;;;1.05;;
40815;SDS011;26535;48.788;9.214;2023-05-07T11:02:10;2.25;;;0.82;;
40815;SDS011;26535;48.788;9.214;2023-05-07T11:07:44;4.90;;;1.10;;
40815;SDS011;26535;48.788;9.214;2023-05-07T11:10:59;2.38;;;0.98;;
40815;SDS011;26535;48.788;9.214;2023-05-07T11:13:42;2.17;;;1.13;;
40815;SDS011;26535;48.788;9.214;2023-05-07T11:16:18;2.85;;;1.02;;
40815;SDS011;26535;48.788;9.214;2023-05-07T11:18:51;3.67;;;0.85;;
40815;SDS011;26535;48.788;9.214;2023-05-07T11:21:33;3.65;;;0.98;;
40815;SDS011;26535;48.788;9.214;2023-05-07T11:24:27;1.92;;;0.90;;
40815;SDS011;26535;48.788;9.214;2023-05-07T11:26:59;3.40;;;1.05;;
40815;SDS011;26535;48.788;9.214;2023-05-07T11:29:26;3.08;;;1.10;;
40815;SDS011;26535;48.788;9.214;2023-05-07T11:31:58;2.20;;;1.10;;
40815;SDS011;26535;48.788;9.214;2023-05-07T11:34:29;2.70;;;1.30;;
40815;SDS011;26535;48.788;9.214;2023-05-07T11:36:57;2.78;;;1.02;;
40815;SDS011;26535;48.788;9.214;2023-05-07T11:39:36;2.85;;;1.30;;
40815;SDS011;26535;48.788;9.214;2023-05-07T11:42:02;3.55;;;1.20;;
40815;SDS011;26535;48.788;9.214;2023-05-07T11:44:41;1.98;;;1.00;;
40815;SDS011;26535;48.788;9.214;2023-05-07T11:47:08;2.50;;;1.08;;
40815;SDS011;26535;48.788;9.214;2023-05-07T11:49:34;2.42;;;1.20;;
40815;SDS011;26535;48.788;9.214;2023-05-07T11:52:00;2.70;;;1.10;;
40815;SDS011;26535;48.788;9.214;2023-05-07T11:54:26;3.28;;;1.15;;
40815;SDS011;26535;48.788;9.214;2023-05-07T11:57:00;3.85;;;1.30;;
40815;SDS011;26535;48.788;9.214;2023-05-07T11:59:26;4.28;;;1.33;;
40815;SDS011;26535;48.788;9.214;2023-05-07T12:01:52;3.05;;;1.30;;
40815;SDS011;26535;48.788;9.214;2023-05-07T12:04:21;3.17;;;1.27;;
40815;SDS011;26535;48.788;9.214;2023-05-07T12:06:47;2.00;;;0.98;;
40815;SDS011;26535;48.788;9.214;2023-05-07T12:09:12;2.60;;;1.10;;
40815;SDS011;26535;48.788;9.214;2023-05-07T12:11:38;2.47;;;1.58;;
40815;SDS011;26535;48.788;9.214;2023-05-07T12:14:04;3.10;;;1.20;;
40815;SDS011;26535;48.788;9.214;2023-05-07T12:16:30;3.08;;;1.30;;
40815;SDS011;26535;48.788;9.214;2023-05-07T12:18:57;2.17;;;1.48;;
40815;SDS011;26535;48.788;9.214;2023-05-07T12:21:24;4.18;;;1.52;;
40815;SDS011;26535;48.788;9.214;2023-05-07T12:23:50;3.80;;;1.95;;
40815;SDS011;26535;48.788;9.214;2023-05-07T12:26:16;5.25;;;2.50;;
40815;SDS011;26535;48.788;9.214;2023-05-07T12:28:42;7.07;;;2.08;;
40815;SDS011;26535;48.788;9.214;2023-05-07T12:31:07;5.35;;;2.10;;
40815;SDS011;26535;48.788;9.214;2023-05-07T12:33:34;5.45;;;2.30;;
40815;SDS011;26535;48.788;9.214;2023-05-07T12:36:02;5.00;;;2.60;;
40815;SDS011;26535;48.788;9.214;2023-05-07T12:38:34;6.72;;;2.13;;
40815;SDS011;26535;48.788;9.214;2023-05-07T12:41:01;5.47;;;2.15;;
40815;SDS011;26535;48.788;9.214;2023-05-07T12:43:27;5.10;;;2.17;;
40815;SDS011;26535;48.788;9.214;2023-05-07T12:45:55;4.95;;;2.30;;
40815;SDS011;26535;48.788;9.214;2023-05-07T12:48:22;6.53;;;3.13;;
40815;SDS011;26535;48.788;9.214;2023-05-07T12:50:52;7.80;;;3.10;;
40815;SDS011;26535;48.788;9.214;2023-05-07T12:53:23;7.60;;;3.50;;
40815;SDS011;26535;48.788;9.214;2023-05-07T12:55:51;11.63;;;4.20;;
40815;SDS011;26535;48.788;9.214;2023-05-07T12:58:19;6.35;;;3.70;;
40815;SDS011;26535;48.788;9.214;2023-05-07T13:00:53;8.18;;;3.10;;
40815;SDS011;26535;48.788;9.214;2023-05-07T13:03:23;6.03;;;2.22;;
40815;SDS011;26535;48.788;9.214;2023-05-07T13:05:50;4.43;;;2.28;;
40815;SDS011;26535;48.788;9.214;2023-05-07T13:08:24;4.55;;;1.80;;
40815;SDS011;26535;48.788;9.214;2023-05-07T13:11:00;6.50;;;1.73;;
40815;SDS011;26535;48.788;9.214;2023-05-07T13:13:33;4.53;;;1.40;;
40815;SDS011;26535;48.788;9.214;2023-05-07T13:16:00;3.10;;;1.40;;
40815;SDS011;26535;48.788;9.214;2023-05-07T13:18:29;5.40;;;2.33;;
40815;SDS011;26535;48.788;9.214;2023-05-07T13:20:55;5.88;;;2.75;;
40815;SDS011;26535;48.788;9.214;2023-05-07T13:23:21;7.72;;;3.45;;
40815;SDS011;26535;48.788;9.214;2023-05-07T13:25:47;5.30;;;2.72;;
40815;SDS011;26535;48.788;9.214;2023-05-07T13:28:15;3.65;;;2.25;;
40815;SDS011;26535;48.788;9.214;2023-05-07T13:30:41;6.43;;;2.72;;
40815;SDS011;26535;48.788;9.214;2023-05-07T13:33:07;8.25;;;3.08;;
40815;SDS011;26535;48.788;9.214;2023-05-07T13:35:33;7.53;;;3.42;;
40815;SDS011;26535;48.788;9.214;2023-05-07T13:37:59;10.48;;;4.45;;
40815;SDS011;26535;48.788;9.214;2023-05-07T13:40:25;8.88;;;4.10;;
40815;SDS011;26535;48.788;9.214;2023-05-07T13:42:50;6.63;;;3.33;;
40815;SDS011;26535;48.788;9.214;2023-05-07T13:45:19;6.88;;;3.40;;
40815;SDS011;26535;48.788;9.214;2023-05-07T13:47:45;6.18;;;2.50;;
40815;SDS011;26535;48.788;9.214;2023-05-07T13:50:12;4.88;;;2.50;;
40815;SDS011;26535;48.788;9.214;2023-05-07T13:52:44;6.97;;;2.25;;
40815;SDS011;26535;48.788;9.214;2023-05-07T13:55:18;4.65;;;1.98;;
40815;SDS011;26535;48.788;9.214;2023-05-07T13:57:53;5.20;;;1.90;;
40815;SDS011;26535;48.788;9.214;2023-05-07T14:00:23;4.45;;;2.58;;
40815;SDS011;26535;48.788;9.214;2023-05-07T14:02:50;6.85;;;3.70;;
40815;SDS011;26535;48.788;9.214;2023-05-07T14:05:16;5.22;;;2.70;;
40815;SDS011;26535;48.788;9.214;2023-05-07T14:07:42;6.07;;;2.08;;
40815;SDS011;26535;48.788;9.214;2023-05-07T14:10:07;3.70;;;1.80;;
40815;SDS011;26535;48.788;9.214;2023-05-07T14:12:34;3.60;;;1.42;;
40815;SDS011;26535;48.788;9.214;2023-05-07T14:15:00;3.03;;;1.70;;
40815;SDS011;26535;48.788;9.214;2023-05-07T14:17:26;3.97;;;1.60;;
40815;SDS011;26535;48.788;9.214;2023-05-07T14:19:52;2.97;;;1.80;;
40815;SDS011;26535;48.788;9.214;2023-05-07T14:22:20;5.10;;;2.30;;
40815;SDS011;26535;48.788;9.214;2023-05-07T14:24:46;4.55;;;2.10;;
40815;SDS011;26535;48.788;9.214;2023-05-07T14:27:12;6.40;;;1.98;;
40815;SDS011;26535;48.788;9.214;2023-05-07T14:29:38;3.45;;;2.05;;
40815;SDS011;26535;48.788;9.214;2023-05-07T14:32:03;3.97;;;1.92;;
40815;SDS011;26535;48.788;9.214;2023-05-07T14:34:30;4.63;;;2.20;;
40815;SDS011;26535;48.788;9.214;2023-05-07T14:36:56;4.53;;;1.65;;
40815;SDS011;26535;48.788;9.214;2023-05-07T14:39:23;3.10;;;1.73;;
40815;SDS011;26535;48.788;9.214;2023-05-07T14:41:49;2.35;;;1.52;;
40815;SDS011;26535;48.788;9.214;2023-05-07T14:44:14;3.10;;;1.70;;
40815;SDS011;26535;48.788;9.214;2023-05-07T14:46:40;4.30;;;2.08;;
40815;SDS011;26535;48.788;9.214;2023-05-07T14:49:06;3.88;;;2.40;;
40815;SDS011;26535;48.788;9.214;2023-05-07T14:51:32;4.75;;;2.95;;
40815;SDS011;26535;48.788;9.214;2023-05-07T14:53:58;8.10;;;4.25;;
40815;SDS011;26535;48.788;9.214;2023-05-07T14:56:23;7.05;;;4.53;;
40815;SDS011;26535;48.788;9.214;2023-05-07T14:58:49;7.25;;;4.43;;
40815;SDS011;26535;48.788;9.214;2023-05-07T15:01:15;8.95;;;4.47;;
40815;SDS011;26535;48.788;9.214;2023-05-07T15:03:41;7.47;;;4.13;;
40815;SDS011;26535;48.788;9.214;2023-05-07T15:06:07;7.30;;;4.32;;
40815;SDS011;26535;48.788;9.214;2023-05-07T15:08:32;7.90;;;4.72;;
40815;SDS011;26535;48.788;9.214;2023-05-07T15:10:58;8.32;;;3.97;;
40815;SDS011;26535;48.788;9.214;2023-05-07T15:13:24;6.05;;;3.45;;
40815;SDS011;26535;48.788;9.214;2023-05-07T15:15:50;4.57;;;2.88;;
40815;SDS011;26535;48.788;9.214;2023-05-07T15:18:16;6.53;;;2.80;;
40815;SDS011;26535;48.788;9.214;2023-05-07T15:20:41;9.05;;;4.38;;
40815;SDS011;26535;48.788;9.214;2023-05-07T15:23:08;5.50;;;3.40;;
40815;SDS011;26535;48.788;9.214;2023-05-07T15:25:41;9.60;;;5.65;;
40815;SDS011;26535;48.788;9.214;2023-05-07T15:28:07;7.90;;;5.63;;
40815;SDS011;26535;48.788;9.214;2023-05-07T15:30:33;7.57;;;4.60;;
40815;SDS011;26535;48.788;9.214;2023-05-07T15:32:59;7.88;;;4.15;;
40815;SDS011;26535;48.788;9.214;2023-05-07T15:35:25;6.53;;;4.05;;
40815;SDS011;26535;48.788;9.214;2023-05-07T15:37:51;7.18;;;3.75;;
40815;SDS011;26535;48.788;9.214;2023-05-07T15:40:20;6.10;;;3.22;;
40815;SDS011;26535;48.788;9.214;2023-05-07T15:42:46;5.07;;;3.38;;
40815;SDS011;26535;48.788;9.214;2023-05-07T15:45:12;4.80;;;2.80;;
40815;SDS011;26535;48.788;9.214;2023-05-07T15:47:38;7.70;;;3.20;;
40815;SDS011;26535;48.788;9.214;2023-05-07T15:50:04;5.35;;;2.85;;
40815;SDS011;26535;48.788;9.214;2023-05-07T15:52:30;5.63;;;3.20;;
40815;SDS011;26535;48.788;9.214;2023-05-07T15:54:56;4.35;;;2.80;;
40815;SDS011;26535;48.788;9.214;2023-05-07T15:57:22;5.90;;;3.08;;
40815;SDS011;26535;48.788;9.214;2023-05-07T15:59:49;4.18;;;2.92;;
40815;SDS011;26535;48.788;9.214;2023-05-07T16:02:15;6.90;;;3.83;;
40815;SDS011;26535;48.788;9.214;2023-05-07T16:04:41;5.65;;;3.35;;
40815;SDS011;26535;48.788;9.214;2023-05-07T16:07:07;6.25;;;4.10;;
40815;SDS011;26535;48.788;9.214;2023-05-07T16:09:32;5.47;;;3.30;;
40815;SDS011;26535;48.788;9.214;2023-05-07T16:11:59;5.80;;;3.22;;
40815;SDS011;26535;48.788;9.214;2023-05-07T16:14:25;5.97;;;3.30;;
40815;SDS011;26535;48.788;9.214;2023-05-07T16:16:51;5.85;;;3.20;;
40815;SDS011;26535;48.788;9.214;2023-05-07T16:19:16;4.32;;;3.45;;
40815;SDS011;26535;48.788;9.214;2023-05-07T16:21:42;5.47;;;3.20;;
40815;SDS011;26535;48.788;9.214;2023-05-07T16:24:08;5.43;;;3.97;;
40815;SDS011;26535;48.788;9.214;2023-05-07T16:26:33;5.60;;;3.53;;
40815;SDS011;26535;48.788;9.214;2023-05-07T16:28:59;6.07;;;3.70;;
40815;SDS011;26535;48.788;9.214;2023-05-07T16:31:26;8.23;;;3.60;;
40815;SDS011;26535;48.788;9.214;2023-05-07T16:33:52;7.28;;;4.50;;
40815;SDS011;26535;48.788;9.214;2023-05-07T16:36:17;8.07;;;4.13;;
40815;SDS011;26535;48.788;9.214;2023-05-07T16:38:44;6.65;;;3.92;;
40815;SDS011;26535;48.788;9.214;2023-05-07T16:41:09;6.50;;;3.63;;
40815;SDS011;26535;48.788;9.214;2023-05-07T16:43:35;8.32;;;4.20;;
40815;SDS011;26535;48.788;9.214;2023-05-07T16:46:01;6.95;;;4.80;;
40815;SDS011;26535;48.788;9.214;2023-05-07T16:48:26;6.90;;;4.70;;
40815;SDS011;26535;48.788;9.214;2023-05-07T16:50:52;7.07;;;4.05;;
40815;SDS011;26535;48.788;9.214;2023-05-07T16:53:18;7.53;;;3.95;;
40815;SDS011;26535;48.788;9.214;2023-05-07T16:55:44;6.68;;;3.53;;
40815;SDS011;26535;48.788;9.214;2023-05-07T16:58:10;9.20;;;4.22;;
40815;SDS011;26535;48.788;9.214;2023-05-07T17:00:37;5.28;;;3.85;;
40815;SDS011;26535;48.788;9.214;2023-05-07T17:03:03;9.00;;;4.35;;
40815;SDS011;26535;48.788;9.214;2023-05-07T17:05:29;7.55;;;4.93;;
40815;SDS011;26535;48.788;9.214;2023-05-07T17:07:55;8.80;;;5.20;;
40815;SDS011;26535;48.788;9.214;2023-05-07T17:10:22;6.90;;;4.50;;
40815;SDS011;26535;48.788;9.214;2023-05-07T17:12:49;7.00;;;4.47;;
40815;SDS011;26535;48.788;9.214;2023-05-07T17:15:15;6.90;;;4.55;;
40815;SDS011;26535;48.788;9.214;2023-05-07T17:17:41;5.15;;;3.45;;
40815;SDS011;26535;48.788;9.214;2023-05-07T17:20:07;6.57;;;3.50;;
40815;SDS011;26535;48.788;9.214;2023-05-07T17:22:33;8.55;;;4.57;;
40815;SDS011;26535;48.788;9.214;2023-05-07T17:24:59;7.32;;;4.25;;
40815;SDS011;26535;48.788;9.214;2023-05-07T17:27:27;6.22;;;3.65;;
40815;SDS011;26535;48.788;9.214;2023-05-07T17:29:53;7.45;;;3.83;;
40815;SDS011;26535;48.788;9.214;2023-05-07T17:32:19;5.57;;;3.63;;
40815;SDS011;26535;48.788;9.214;2023-05-07T17:34:45;6.07;;;3.53;;
40815;SDS011;26535;48.788;9.214;2023-05-07T17:37:10;5.13;;;3.58;;
40815;SDS011;26535;48.788;9.214;2023-05-07T17:39:36;5.63;;;4.05;;
40815;SDS011;26535;48.788;9.214;2023-05-07T17:42:02;4.90;;;3.42;;
40815;SDS011;26535;48.788;9.214;2023-05-07T17:44:27;6.60;;;4.03;;
40815;SDS011;26535;48.788;9.214;2023-05-07T17:46:53;6.75;;;4.00;;
40815;SDS011;26535;48.788;9.214;2023-05-07T17:49:19;7.82;;;3.90;;
40815;SDS011;26535;48.788;9.214;2023-05-07T17:51:45;7.32;;;4.45;;
40815;SDS011;26535;48.788;9.214;2023-05-07T17:54:10;6.47;;;4.93;;
40815;SDS011;26535;48.788;9.214;2023-05-07T17:56:36;5.57;;;4.15;;
40815;SDS011;26535;48.788;9.214;2023-05-07T17:59:04;7.07;;;4.00;;
40815;SDS011;26535;48.788;9.214;2023-05-07T18:01:30;5.25;;;3.80;;
40815;SDS011;26535;48.788;9.214;2023-05-07T18:03:58;6.38;;;4.00;;
40815;SDS011;26535;48.788;9.214;2023-05-07T18:06:23;6.45;;;4.00;;
40815;SDS011;26535;48.788;9.214;2023-05-07T18:08:49;6.88;;;4.53;;
40815;SDS011;26535;48.788;9.214;2023-05-07T18:11:15;5.82;;;4.20;;
40815;SDS011;26535;48.788;9.214;2023-05-07T18:13:41;6.22;;;4.40;;
40815;SDS011;26535;48.788;9.214;2023-05-07T18:16:07;10.23;;;5.55;;
40815;SDS011;26535;48.788;9.214;2023-05-07T18:18:33;9.30;;;5.85;;
40815;SDS011;26535;48.788;9.214;2023-05-07T18:20:59;10.52;;;5.68;;
40815;SDS011;26535;48.788;9.214;2023-05-07T18:23:26;7.70;;;5.50;;
40815;SDS011;26535;48.788;9.214;2023-05-07T18:25:52;7.93;;;5.35;;
40815;SDS011;26535;48.788;9.214;2023-05-07T18:28:17;8.15;;;4.30;;
40815;SDS011;26535;48.788;9.214;2023-05-07T18:30:43;5.72;;;3.95;;
40815;SDS011;26535;48.788;9.214;2023-05-07T18:33:09;5.63;;;4.30;;
40815;SDS011;26535;48.788;9.214;2023-05-07T18:35:35;6.07;;;3.90;;
40815;SDS011;26535;48.788;9.214;2023-05-07T18:38:01;5.65;;;3.80;;
40815;SDS011;26535;48.788;9.214;2023-05-07T18:40:27;4.47;;;3.33;;
40815;SDS011;26535;48.788;9.214;2023-05-07T18:42:53;7.88;;;3.67;;
40815;SDS011;26535;48.788;9.214;2023-05-07T18:45:19;5.60;;;3.50;;
40815;SDS011;26535;48.788;9.214;2023-05-07T18:47:45;4.80;;;3.28;;
40815;SDS011;26535;48.788;9.214;2023-05-07T18:50:11;4.95;;;3.42;;
40815;SDS011;26535;48.788;9.214;2023-05-07T18:52:38;5.88;;;3.90;;
40815;SDS011;26535;48.788;9.214;2023-05-07T18:55:04;5.70;;;4.32;;
40815;SDS011;26535;48.788;9.214;2023-05-07T18:57:31;7.07;;;3.88;;
40815;SDS011;26535;48.788;9.214;2023-05-07T18:59:57;5.22;;;3.60;;
40815;SDS011;26535;48.788;9.214;2023-05-07T19:02:22;5.35;;;4.20;;
40815;SDS011;26535;48.788;9.214;2023-05-07T19:04:48;5.75;;;4.25;;
40815;SDS011;26535;48.788;9.214;2023-05-07T19:07:14;7.30;;;4.43;;
40815;SDS011;26535;48.788;9.214;2023-05-07T19:09:40;6.95;;;4.38;;
40815;SDS011;26535;48.788;9.214;2023-05-07T19:12:06;6.38;;;4.43;;
40815;SDS011;26535;48.788;9.214;2023-05-07T19:14:32;5.30;;;4.00;;
40815;SDS011;26535;48.788;9.214;2023-05-07T19:16:57;6.32;;;4.50;;
40815;SDS011;26535;48.788;9.214;2023-05-07T19:19:25;6.95;;;4.80;;
40815;SDS011;26535;48.788;9.214;2023-05-07T19:21:51;8.63;;;4.80;;
40815;SDS011;26535;48.788;9.214;2023-05-07T19:24:17;6.65;;;4.70;;
40815;SDS011;26535;48.788;9.214;2023-05-07T19:26:43;6.20;;;4.85;;
40815;SDS011;26535;48.788;9.214;2023-05-07T19:29:09;6.20;;;3.95;;
40815;SDS011;26535;48.788;9.214;2023-05-07T19:31:35;6.15;;;4.63;;
40815;SDS011;26535;48.788;9.214;2023-05-07T19:34:01;6.95;;;4.57;;
40815;SDS011;26535;48.788;9.214;2023-05-07T19:36:27;7.10;;;4.50;;
40815;SDS011;26535;48.788;9.214;2023-05-07T19:38:53;6.93;;;4.22;;
40815;SDS011;26535;48.788;9.214;2023-05-07T19:41:19;7.55;;;4.70;;
40815;SDS011;26535;48.788;9.214;2023-05-07T19:43:46;7.97;;;5.38;;
40815;SDS011;26535;48.788;9.214;2023-05-07T19:46:12;9.43;;;5.55;;
40815;SDS011;26535;48.788;9.214;2023-05-07T19:48:40;8.48;;;5.35;;
40815;SDS011;26535;48.788;9.214;2023-05-07T19:51:06;8.43;;;4.78;;
40815;SDS011;26535;48.788;9.214;2023-05-07T19:53:32;7.00;;;4.70;;
40815;SDS011;26535;48.788;9.214;2023-05-07T19:56:15;7.40;;;5.18;;
40815;SDS011;26535;48.788;9.214;2023-05-07T19:58:41;6.43;;;5.00;;
40815;SDS011;26535;48.788;9.214;2023-05-07T20:01:07;8.68;;;5.60;;
40815;SDS011;26535;48.788;9.214;2023-05-07T20:03:32;7.70;;;5.80;;